The Hangar Logo

METARs in Plain English
Latest METAR information for EGVN - BRIZE NORTON

EGVN 291250Z 17003KT 6000 -RA OVC008 17/15 Q1012 TEMPO 8000 HZ

In plain english is....

This is a METAR report for EGVN - BRIZE NORTON .
The report was made 18 minutes ago, at 12:50 UTC.
The wind was blowing at a speed of 3 knots (3.5 miles per hour, 1.5 metres per second) from the South (170°).
The visibility was 3.7 miles (6.0 kilometres).
Weather was Light Rain .
There were overcast at a height of 800 feet (244 metres).
The temperature was 17°C (63°F), a dew point of 15°C (59°F) and a relative humidity of 88.0%.
The altimeter setting (airfield QNH) was 1,012 hPa (29.88 inHg).
Other remarks TEMPO 8000 HZ.

UK Mainland

Ireland

Channel Islands

France

Other



Enter
Tel: 07092 887559 - Fax: 07092 183262

Content copyright © 1999-2016 TheHangar.co.uk. All rights reserved.
Please send your questions, comments, or bug reports to the Webmaster.